sensor_id;sensor_type;location;lat;lon;timestamp;temperature;humidity
32215;DHT22;18708;53.124;23.190;2023-05-07T00:01:06;7.90;1.00
32215;DHT22;18708;53.124;23.190;2023-05-07T00:03:32;8.00;1.00
32215;DHT22;18708;53.124;23.190;2023-05-07T00:05:58;7.90;1.00
32215;DHT22;18708;53.124;23.190;2023-05-07T00:08:24;7.80;1.00
32215;DHT22;18708;53.124;23.190;2023-05-07T00:10:50;7.80;1.00
32215;DHT22;18708;53.124;23.190;2023-05-07T00:13:15;7.80;1.00
32215;DHT22;18708;53.124;23.190;2023-05-07T00:15:41;7.70;1.00
32215;DHT22;18708;53.124;23.190;2023-05-07T00:18:07;7.70;1.00
32215;DHT22;18708;53.124;23.190;2023-05-07T00:20:32;7.70;1.00
32215;DHT22;18708;53.124;23.190;2023-05-07T00:22:58;7.60;1.00
32215;DHT22;18708;53.124;23.190;2023-05-07T00:25:24;7.60;1.00
32215;DHT22;18708;53.124;23.190;2023-05-07T00:27:49;7.70;1.00
32215;DHT22;18708;53.124;23.190;2023-05-07T00:30:15;7.60;1.00
32215;DHT22;18708;53.124;23.190;2023-05-07T00:32:41;7.60;1.00
32215;DHT22;18708;53.124;23.190;2023-05-07T00:35:07;7.60;1.00
32215;DHT22;18708;53.124;23.190;2023-05-07T00:37:33;7.50;1.00
32215;DHT22;18708;53.124;23.190;2023-05-07T00:39:59;7.40;1.00
32215;DHT22;18708;53.124;23.190;2023-05-07T00:42:24;7.40;1.00
32215;DHT22;18708;53.124;23.190;2023-05-07T00:44:50;7.40;1.00
32215;DHT22;18708;53.124;23.190;2023-05-07T00:47:16;7.40;1.00
32215;DHT22;18708;53.124;23.190;2023-05-07T00:49:43;7.50;1.00
32215;DHT22;18708;53.124;23.190;2023-05-07T00:52:13;7.40;1.00
32215;DHT22;18708;53.124;23.190;2023-05-07T00:54:40;7.40;1.00
32215;DHT22;18708;53.124;23.190;2023-05-07T00:57:06;7.30;1.00
32215;DHT22;18708;53.124;23.190;2023-05-07T00:59:32;7.30;1.00
32215;DHT22;18708;53.124;23.190;2023-05-07T01:01:58;7.30;1.00
32215;DHT22;18708;53.124;23.190;2023-05-07T01:04:24;7.30;1.00
32215;DHT22;18708;53.124;23.190;2023-05-07T01:06:50;7.20;1.00
32215;DHT22;18708;53.124;23.190;2023-05-07T01:09:17;7.10;1.00
32215;DHT22;18708;53.124;23.190;2023-05-07T01:11:45;7.20;1.00
32215;DHT22;18708;53.124;23.190;2023-05-07T01:14:12;7.20;1.00
32215;DHT22;18708;53.124;23.190;2023-05-07T01:16:37;7.00;1.00
32215;DHT22;18708;53.124;23.190;2023-05-07T01:19:03;6.90;1.00
32215;DHT22;18708;53.124;23.190;2023-05-07T01:21:32;6.80;1.00
32215;DHT22;18708;53.124;23.190;2023-05-07T01:23:59;6.70;1.00
32215;DHT22;18708;53.124;23.190;2023-05-07T01:26:25;6.70;1.00
32215;DHT22;18708;53.124;23.190;2023-05-07T01:28:51;6.50;1.00
32215;DHT22;18708;53.124;23.190;2023-05-07T01:31:17;6.50;1.00
32215;DHT22;18708;53.124;23.190;2023-05-07T01:33:44;6.50;1.00
32215;DHT22;18708;53.124;23.190;2023-05-07T01:36:11;6.50;1.00
32215;DHT22;18708;53.124;23.190;2023-05-07T01:38:39;6.50;1.00
32215;DHT22;18708;53.124;23.190;2023-05-07T01:41:06;6.50;1.00
32215;DHT22;18708;53.124;23.190;2023-05-07T01:43:32;6.50;1.00
32215;DHT22;18708;53.124;23.190;2023-05-07T01:45:57;6.40;1.00
32215;DHT22;18708;53.124;23.190;2023-05-07T01:48:24;6.30;1.00
32215;DHT22;18708;53.124;23.190;2023-05-07T01:50:51;6.40;1.00
32215;DHT22;18708;53.124;23.190;2023-05-07T01:53:17;6.40;1.00
32215;DHT22;18708;53.124;23.190;2023-05-07T01:55:43;6.40;1.00
32215;DHT22;18708;53.124;23.190;2023-05-07T01:58:08;6.20;1.00
32215;DHT22;18708;53.124;23.190;2023-05-07T02:00:34;6.30;1.00
32215;DHT22;18708;53.124;23.190;2023-05-07T02:03:00;6.30;1.00
32215;DHT22;18708;53.124;23.190;2023-05-07T02:05:25;6.30;1.00
32215;DHT22;18708;53.124;23.190;2023-05-07T02:07:51;6.20;1.00
32215;DHT22;18708;53.124;23.190;2023-05-07T02:10:17;6.20;1.00
32215;DHT22;18708;53.124;23.190;2023-05-07T02:12:42;6.30;1.00
32215;DHT22;18708;53.124;23.190;2023-05-07T02:15:08;6.20;1.00
32215;DHT22;18708;53.124;23.190;2023-05-07T02:17:34;6.30;1.00
32215;DHT22;18708;53.124;23.190;2023-05-07T02:20:00;6.10;1.00
32215;DHT22;18708;53.124;23.190;2023-05-07T02:22:26;6.00;1.00
32215;DHT22;18708;53.124;23.190;2023-05-07T02:24:51;5.90;1.00
32215;DHT22;18708;53.124;23.190;2023-05-07T02:27:17;5.80;1.00
32215;DHT22;18708;53.124;23.190;2023-05-07T02:29:43;5.70;1.00
32215;DHT22;18708;53.124;23.190;2023-05-07T02:32:08;5.80;1.00
32215;DHT22;18708;53.124;23.190;2023-05-07T02:34:34;5.70;1.00
32215;DHT22;18708;53.124;23.190;2023-05-07T02:37:00;5.70;1.00
32215;DHT22;18708;53.124;23.190;2023-05-07T02:39:25;5.70;1.00
32215;DHT22;18708;53.124;23.190;2023-05-07T02:41:51;5.70;1.00
32215;DHT22;18708;53.124;23.190;2023-05-07T02:44:17;5.70;1.00
32215;DHT22;18708;53.124;23.190;2023-05-07T02:46:42;5.60;1.00
32215;DHT22;18708;53.124;23.190;2023-05-07T02:49:08;5.60;1.00
32215;DHT22;18708;53.124;23.190;2023-05-07T02:51:33;5.60;1.00
32215;DHT22;18708;53.124;23.190;2023-05-07T02:53:59;5.70;1.00
32215;DHT22;18708;53.124;23.190;2023-05-07T02:56:26;5.50;1.00
32215;DHT22;18708;53.124;23.190;2023-05-07T02:58:52;5.50;1.00
32215;DHT22;18708;53.124;23.190;2023-05-07T03:01:18;5.40;1.00
32215;DHT22;18708;53.124;23.190;2023-05-07T03:03:44;5.30;1.00
32215;DHT22;18708;53.124;23.190;2023-05-07T03:06:09;5.20;1.00
32215;DHT22;18708;53.124;23.190;2023-05-07T03:08:35;5.30;1.00
32215;DHT22;18708;53.124;23.190;2023-05-07T03:11:02;5.30;1.00
32215;DHT22;18708;53.124;23.190;2023-05-07T03:13:28;5.10;1.00
32215;DHT22;18708;53.124;23.190;2023-05-07T03:15:53;5.20;1.00
32215;DHT22;18708;53.124;23.190;2023-05-07T03:18:19;5.10;1.00
32215;DHT22;18708;53.124;23.190;2023-05-07T03:20:45;5.20;1.00
32215;DHT22;18708;53.124;23.190;2023-05-07T03:23:10;5.30;1.00
32215;DHT22;18708;53.124;23.190;2023-05-07T03:25:36;5.40;1.00
32215;DHT22;18708;53.124;23.190;2023-05-07T03:28:01;5.40;1.00
32215;DHT22;18708;53.124;23.190;2023-05-07T03:30:27;5.40;1.00
32215;DHT22;18708;53.124;23.190;2023-05-07T03:32:53;5.40;1.00
32215;DHT22;18708;53.124;23.190;2023-05-07T03:35:18;5.50;1.00
32215;DHT22;18708;53.124;23.190;2023-05-07T03:37:44;5.50;1.00
32215;DHT22;18708;53.124;23.190;2023-05-07T03:40:10;5.50;1.00
32215;DHT22;18708;53.124;23.190;2023-05-07T03:42:37;5.50;1.00
32215;DHT22;18708;53.124;23.190;2023-05-07T03:45:03;5.60;1.00
32215;DHT22;18708;53.124;23.190;2023-05-07T03:47:29;5.60;1.00
32215;DHT22;18708;53.124;23.190;2023-05-07T03:49:55;5.60;1.00
32215;DHT22;18708;53.124;23.190;2023-05-07T03:52:21;5.60;1.00
32215;DHT22;18708;53.124;23.190;2023-05-07T03:54:52;5.50;1.00
32215;DHT22;18708;53.124;23.190;2023-05-07T03:57:18;5.50;1.00
32215;DHT22;18708;53.124;23.190;2023-05-07T03:59:43;5.50;1.00
32215;DHT22;18708;53.124;23.190;2023-05-07T04:02:09;5.50;1.00
32215;DHT22;18708;53.124;23.190;2023-05-07T04:04:35;5.50;1.00
32215;DHT22;18708;53.124;23.190;2023-05-07T04:07:00;5.40;1.00
32215;DHT22;18708;53.124;23.190;2023-05-07T04:09:26;5.50;1.00
32215;DHT22;18708;53.124;23.190;2023-05-07T04:11:52;5.40;1.00
32215;DHT22;18708;53.124;23.190;2023-05-07T04:14:17;5.50;1.00
32215;DHT22;18708;53.124;23.190;2023-05-07T04:16:43;5.50;1.00
32215;DHT22;18708;53.124;23.190;2023-05-07T04:19:08;5.60;1.00
32215;DHT22;18708;53.124;23.190;2023-05-07T04:21:34;5.80;1.00
32215;DHT22;18708;53.124;23.190;2023-05-07T04:24:02;6.00;1.00
32215;DHT22;18708;53.124;23.190;2023-05-07T04:26:28;6.10;1.00
32215;DHT22;18708;53.124;23.190;2023-05-07T04:28:54;6.20;1.00
32215;DHT22;18708;53.124;23.190;2023-05-07T04:31:20;6.20;1.00
32215;DHT22;18708;53.124;23.190;2023-05-07T04:33:46;6.20;1.00
32215;DHT22;18708;53.124;23.190;2023-05-07T04:36:12;6.20;1.00
32215;DHT22;18708;53.124;23.190;2023-05-07T04:38:37;6.30;1.00
32215;DHT22;18708;53.124;23.190;2023-05-07T04:41:05;6.40;1.00
32215;DHT22;18708;53.124;23.190;2023-05-07T04:43:32;6.50;1.00
32215;DHT22;18708;53.124;23.190;2023-05-07T04:45:57;6.50;1.00
32215;DHT22;18708;53.124;23.190;2023-05-07T04:48:24;6.50;1.00
32215;DHT22;18708;53.124;23.190;2023-05-07T04:50:50;6.60;1.00
32215;DHT22;18708;53.124;23.190;2023-05-07T04:53:16;6.70;1.00
32215;DHT22;18708;53.124;23.190;2023-05-07T04:55:43;6.90;1.00
32215;DHT22;18708;53.124;23.190;2023-05-07T04:58:09;7.00;1.00
32215;DHT22;18708;53.124;23.190;2023-05-07T05:00:35;7.10;1.00
32215;DHT22;18708;53.124;23.190;2023-05-07T05:03:00;7.20;1.00
32215;DHT22;18708;53.124;23.190;2023-05-07T05:05:26;7.20;1.00
32215;DHT22;18708;53.124;23.190;2023-05-07T05:07:52;7.30;1.00
32215;DHT22;18708;53.124;23.190;2023-05-07T05:10:18;7.20;1.00
32215;DHT22;18708;53.124;23.190;2023-05-07T05:12:44;7.40;1.00
32215;DHT22;18708;53.124;23.190;2023-05-07T05:15:11;7.40;1.00
32215;DHT22;18708;53.124;23.190;2023-05-07T05:17:37;7.60;1.00
32215;DHT22;18708;53.124;23.190;2023-05-07T05:20:03;7.60;1.00
32215;DHT22;18708;53.124;23.190;2023-05-07T05:22:29;7.90;1.00
32215;DHT22;18708;53.124;23.190;2023-05-07T05:24:56;7.90;1.00
32215;DHT22;18708;53.124;23.190;2023-05-07T05:27:22;8.00;1.00
32215;DHT22;18708;53.124;23.190;2023-05-07T05:29:48;8.10;1.00
32215;DHT22;18708;53.124;23.190;2023-05-07T05:32:14;8.30;1.00
32215;DHT22;18708;53.124;23.190;2023-05-07T05:34:39;8.20;1.00
32215;DHT22;18708;53.124;23.190;2023-05-07T05:37:05;8.00;1.00
32215;DHT22;18708;53.124;23.190;2023-05-07T05:39:31;8.00;1.00
32215;DHT22;18708;53.124;23.190;2023-05-07T05:41:57;8.10;1.00
32215;DHT22;18708;53.124;23.190;2023-05-07T05:44:22;8.20;1.00
32215;DHT22;18708;53.124;23.190;2023-05-07T05:46:48;8.30;1.00
32215;DHT22;18708;53.124;23.190;2023-05-07T05:49:15;8.50;1.00
32215;DHT22;18708;53.124;23.190;2023-05-07T05:51:41;8.90;1.00
32215;DHT22;18708;53.124;23.190;2023-05-07T05:54:06;9.20;1.00
32215;DHT22;18708;53.124;23.190;2023-05-07T05:56:32;9.10;1.00
32215;DHT22;18708;53.124;23.190;2023-05-07T05:58:58;9.40;1.00
32215;DHT22;18708;53.124;23.190;2023-05-07T06:01:24;9.60;1.00
32215;DHT22;18708;53.124;23.190;2023-05-07T06:03:50;9.70;1.00
32215;DHT22;18708;53.124;23.190;2023-05-07T06:06:15;9.90;1.00
32215;DHT22;18708;53.124;23.190;2023-05-07T06:08:42;10.20;1.00
32215;DHT22;18708;53.124;23.190;2023-05-07T06:11:07;10.40;1.00
32215;DHT22;18708;53.124;23.190;2023-05-07T06:13:33;10.20;1.00
32215;DHT22;18708;53.124;23.190;2023-05-07T06:15:59;10.40;1.00
32215;DHT22;18708;53.124;23.190;2023-05-07T06:18:24;10.50;1.00
32215;DHT22;18708;53.124;23.190;2023-05-07T06:20:51;10.50;1.00
32215;DHT22;18708;53.124;23.190;2023-05-07T06:23:17;10.80;1.00
32215;DHT22;18708;53.124;23.190;2023-05-07T06:25:47;11.10;1.00
32215;DHT22;18708;53.124;23.190;2023-05-07T06:28:13;11.10;1.00
32215;DHT22;18708;53.124;23.190;2023-05-07T06:30:38;11.20;1.00
32215;DHT22;18708;53.124;23.190;2023-05-07T06:33:05;10.90;1.00
32215;DHT22;18708;53.124;23.190;2023-05-07T06:35:31;11.20;1.00
32215;DHT22;18708;53.124;23.190;2023-05-07T06:37:56;11.10;1.00
32215;DHT22;18708;53.124;23.190;2023-05-07T06:40:22;11.40;1.00
32215;DHT22;18708;53.124;23.190;2023-05-07T06:42:48;11.30;1.00
32215;DHT22;18708;53.124;23.190;2023-05-07T06:45:13;12.00;1.00
32215;DHT22;18708;53.124;23.190;2023-05-07T06:47:39;12.90;1.00
32215;DHT22;18708;53.124;23.190;2023-05-07T06:50:05;13.40;1.00
32215;DHT22;18708;53.124;23.190;2023-05-07T06:52:31;13.50;1.00
32215;DHT22;18708;53.124;23.190;2023-05-07T06:54:57;13.60;1.00
32215;DHT22;18708;53.124;23.190;2023-05-07T06:57:24;13.30;1.00
32215;DHT22;18708;53.124;23.190;2023-05-07T06:59:51;13.00;1.00
32215;DHT22;18708;53.124;23.190;2023-05-07T07:02:16;13.00;1.00
32215;DHT22;18708;53.124;23.190;2023-05-07T07:04:44;13.20;1.00
32215;DHT22;18708;53.124;23.190;2023-05-07T07:07:10;12.90;1.00
32215;DHT22;18708;53.124;23.190;2023-05-07T07:09:36;13.10;1.00
32215;DHT22;18708;53.124;23.190;2023-05-07T07:12:01;12.30;1.00
32215;DHT22;18708;53.124;23.190;2023-05-07T07:14:27;13.00;1.00
32215;DHT22;18708;53.124;23.190;2023-05-07T07:16:53;13.00;1.00
32215;DHT22;18708;53.124;23.190;2023-05-07T07:19:19;13.40;1.00
32215;DHT22;18708;53.124;23.190;2023-05-07T07:21:48;13.60;1.00
32215;DHT22;18708;53.124;23.190;2023-05-07T07:24:14;13.00;1.00
32215;DHT22;18708;53.124;23.190;2023-05-07T07:26:44;12.50;1.00
32215;DHT22;18708;53.124;23.190;2023-05-07T07:29:10;12.80;1.00
32215;DHT22;18708;53.124;23.190;2023-05-07T07:31:36;13.30;1.00
32215;DHT22;18708;53.124;23.190;2023-05-07T07:34:01;13.30;1.00
32215;DHT22;18708;53.124;23.190;2023-05-07T07:36:27;13.50;1.00
32215;DHT22;18708;53.124;23.190;2023-05-07T07:38:53;13.40;1.00
32215;DHT22;18708;53.124;23.190;2023-05-07T07:41:19;14.10;1.00
32215;DHT22;18708;53.124;23.190;2023-05-07T07:43:45;14.10;1.00
32215;DHT22;18708;53.124;23.190;2023-05-07T07:46:12;13.60;1.00
32215;DHT22;18708;53.124;23.190;2023-05-07T07:48:37;14.10;1.00
32215;DHT22;18708;53.124;23.190;2023-05-07T07:51:03;13.70;1.00
32215;DHT22;18708;53.124;23.190;2023-05-07T07:53:29;14.40;1.00
32215;DHT22;18708;53.124;23.190;2023-05-07T07:55:55;14.10;1.00
32215;DHT22;18708;53.124;23.190;2023-05-07T07:58:21;14.50;1.00
32215;DHT22;18708;53.124;23.190;2023-05-07T08:00:47;13.40;1.00
32215;DHT22;18708;53.124;23.190;2023-05-07T08:03:14;13.50;1.00
32215;DHT22;18708;53.124;23.190;2023-05-07T08:05:44;13.70;1.00
32215;DHT22;18708;53.124;23.190;2023-05-07T08:08:09;13.50;1.00
32215;DHT22;18708;53.124;23.190;2023-05-07T08:10:35;14.00;1.00
32215;DHT22;18708;53.124;23.190;2023-05-07T08:13:03;14.40;1.00
32215;DHT22;18708;53.124;23.190;2023-05-07T08:15:30;14.30;1.00
32215;DHT22;18708;53.124;23.190;2023-05-07T08:17:55;13.60;1.00
32215;DHT22;18708;53.124;23.190;2023-05-07T08:20:23;14.00;1.00
32215;DHT22;18708;53.124;23.190;2023-05-07T08:22:48;14.20;1.00
32215;DHT22;18708;53.124;23.190;2023-05-07T08:25:14;14.70;1.00
32215;DHT22;18708;53.124;23.190;2023-05-07T08:27:40;13.90;1.00
32215;DHT22;18708;53.124;23.190;2023-05-07T08:30:06;14.10;1.00
32215;DHT22;18708;53.124;23.190;2023-05-07T08:32:35;14.60;1.00
32215;DHT22;18708;53.124;23.190;2023-05-07T08:35:00;15.30;1.00
32215;DHT22;18708;53.124;23.190;2023-05-07T08:37:26;14.80;1.00
32215;DHT22;18708;53.124;23.190;2023-05-07T08:39:51;14.30;1.00
32215;DHT22;18708;53.124;23.190;2023-05-07T08:42:17;14.70;1.00
32215;DHT22;18708;53.124;23.190;2023-05-07T08:44:45;14.50;1.00
32215;DHT22;18708;53.124;23.190;2023-05-07T08:47:14;14.70;1.00
32215;DHT22;18708;53.124;23.190;2023-05-07T08:49:39;14.60;1.00
32215;DHT22;18708;53.124;23.190;2023-05-07T08:52:05;13.70;1.00
32215;DHT22;18708;53.124;23.190;2023-05-07T08:54:31;14.00;1.00
32215;DHT22;18708;53.124;23.190;2023-05-07T08:56:59;14.10;1.00
32215;DHT22;18708;53.124;23.190;2023-05-07T08:59:26;13.50;1.00
32215;DHT22;18708;53.124;23.190;2023-05-07T09:01:52;13.60;1.00
32215;DHT22;18708;53.124;23.190;2023-05-07T09:04:17;14.10;1.00
32215;DHT22;18708;53.124;23.190;2023-05-07T09:06:43;14.50;1.00
32215;DHT22;18708;53.124;23.190;2023-05-07T09:09:09;14.10;1.00
32215;DHT22;18708;53.124;23.190;2023-05-07T09:11:34;14.30;1.00
32215;DHT22;18708;53.124;23.190;2023-05-07T09:14:00;14.40;1.00
32215;DHT22;18708;53.124;23.190;2023-05-07T09:16:30;14.60;1.00
32215;DHT22;18708;53.124;23.190;2023-05-07T09:18:59;14.70;1.00
32215;DHT22;18708;53.124;23.190;2023-05-07T09:21:25;14.60;1.00
32215;DHT22;18708;53.124;23.190;2023-05-07T09:23:54;14.20;1.00
32215;DHT22;18708;53.124;23.190;2023-05-07T09:26:25;14.40;1.00
32215;DHT22;18708;53.124;23.190;2023-05-07T09:28:53;14.40;1.00
32215;DHT22;18708;53.124;23.190;2023-05-07T09:31:19;14.40;1.00
32215;DHT22;18708;53.124;23.190;2023-05-07T09:33:44;15.40;1.00
32215;DHT22;18708;53.124;23.190;2023-05-07T09:36:13;15.60;1.00
32215;DHT22;18708;53.124;23.190;2023-05-07T09:38:39;15.50;1.00
32215;DHT22;18708;53.124;23.190;2023-05-07T09:41:09;15.80;1.00
32215;DHT22;18708;53.124;23.190;2023-05-07T09:43:37;16.40;1.00
32215;DHT22;18708;53.124;23.190;2023-05-07T09:46:07;16.50;1.00
32215;DHT22;18708;53.124;23.190;2023-05-07T09:48:41;15.70;1.00
32215;DHT22;18708;53.124;23.190;2023-05-07T09:51:30;15.50;1.00
32215;DHT22;18708;53.124;23.190;2023-05-07T09:54:00;15.10;1.00
32215;DHT22;18708;53.124;23.190;2023-05-07T09:56:32;15.30;1.00
32215;DHT22;18708;53.124;23.190;2023-05-07T09:59:03;15.80;1.00
32215;DHT22;18708;53.124;23.190;2023-05-07T10:01:31;15.70;1.00
32215;DHT22;18708;53.124;23.190;2023-05-07T10:03:57;15.90;1.00
32215;DHT22;18708;53.124;23.190;2023-05-07T10:06:25;15.60;1.00
32215;DHT22;18708;53.124;23.190;2023-05-07T10:08:52;16.10;1.00
32215;DHT22;18708;53.124;23.190;2023-05-07T10:11:18;16.50;1.00
32215;DHT22;18708;53.124;23.190;2023-05-07T10:13:46;16.30;1.00
32215;DHT22;18708;53.124;23.190;2023-05-07T10:16:13;16.80;1.00
32215;DHT22;18708;53.124;23.190;2023-05-07T10:18:40;16.20;1.00
32215;DHT22;18708;53.124;23.190;2023-05-07T10:21:44;16.30;1.00
32215;DHT22;18708;53.124;23.190;2023-05-07T10:24:40;15.70;1.00
32215;DHT22;18708;53.124;23.190;2023-05-07T10:27:10;15.30;1.00
32215;DHT22;18708;53.124;23.190;2023-05-07T10:35:02;15.90;1.00
32215;DHT22;18708;53.124;23.190;2023-05-07T10:37:29;15.60;1.00
32215;DHT22;18708;53.124;23.190;2023-05-07T10:39:55;15.40;1.00
32215;DHT22;18708;53.124;23.190;2023-05-07T10:42:22;15.80;1.00
32215;DHT22;18708;53.124;23.190;2023-05-07T10:44:48;15.80;1.00
32215;DHT22;18708;53.124;23.190;2023-05-07T10:47:16;16.20;1.00
32215;DHT22;18708;53.124;23.190;2023-05-07T10:52:21;15.90;1.00
32215;DHT22;18708;53.124;23.190;2023-05-07T10:57:43;15.70;1.00
32215;DHT22;18708;53.124;23.190;2023-05-07T11:05:24;15.60;1.00
32215;DHT22;18708;53.124;23.190;2023-05-07T11:08:01;16.30;1.00
32215;DHT22;18708;53.124;23.190;2023-05-07T11:13:15;17.50;1.00
32215;DHT22;18708;53.124;23.190;2023-05-07T11:15:45;17.70;1.00
32215;DHT22;18708;53.124;23.190;2023-05-07T11:18:13;16.00;1.00
32215;DHT22;18708;53.124;23.190;2023-05-07T11:26:04;16.30;1.00
32215;DHT22;18708;53.124;23.190;2023-05-07T11:28:33;15.90;1.00
32215;DHT22;18708;53.124;23.190;2023-05-07T11:31:04;16.80;1.00
32215;DHT22;18708;53.124;23.190;2023-05-07T11:33:31;16.20;1.00
32215;DHT22;18708;53.124;23.190;2023-05-07T11:36:00;17.40;1.00
32215;DHT22;18708;53.124;23.190;2023-05-07T11:38:25;17.00;1.00
32215;DHT22;18708;53.124;23.190;2023-05-07T11:40:52;17.90;1.00
32215;DHT22;18708;53.124;23.190;2023-05-07T11:43:18;18.90;1.00
32215;DHT22;18708;53.124;23.190;2023-05-07T11:45:48;17.10;1.00
32215;DHT22;18708;53.124;23.190;2023-05-07T11:48:15;17.00;1.00
32215;DHT22;18708;53.124;23.190;2023-05-07T11:51:03;16.60;1.00
32215;DHT22;18708;53.124;23.190;2023-05-07T11:53:38;16.10;1.00
32215;DHT22;18708;53.124;23.190;2023-05-07T11:56:12;16.80;1.00
32215;DHT22;18708;53.124;23.190;2023-05-07T11:58:39;17.30;1.00
32215;DHT22;18708;53.124;23.190;2023-05-07T12:01:08;17.40;1.00
32215;DHT22;18708;53.124;23.190;2023-05-07T12:03:37;17.70;1.00
32215;DHT22;18708;53.124;23.190;2023-05-07T12:06:08;16.90;1.00
32215;DHT22;18708;53.124;23.190;2023-05-07T12:08:40;17.20;1.00
32215;DHT22;18708;53.124;23.190;2023-05-07T12:11:13;17.40;1.00
32215;DHT22;18708;53.124;23.190;2023-05-07T12:13:39;17.40;1.00
32215;DHT22;18708;53.124;23.190;2023-05-07T12:16:08;16.10;1.00
32215;DHT22;18708;53.124;23.190;2023-05-07T12:18:35;15.40;1.00
32215;DHT22;18708;53.124;23.190;2023-05-07T12:21:02;15.60;1.00
32215;DHT22;18708;53.124;23.190;2023-05-07T12:23:29;16.50;1.00
32215;DHT22;18708;53.124;23.190;2023-05-07T12:25:58;16.20;1.00
32215;DHT22;18708;53.124;23.190;2023-05-07T12:28:24;16.70;1.00
32215;DHT22;18708;53.124;23.190;2023-05-07T12:30:50;17.00;1.00
32215;DHT22;18708;53.124;23.190;2023-05-07T12:33:18;16.70;1.00
32215;DHT22;18708;53.124;23.190;2023-05-07T12:35:47;16.80;1.00
32215;DHT22;18708;53.124;23.190;2023-05-07T12:38:14;17.30;1.00
32215;DHT22;18708;53.124;23.190;2023-05-07T12:40:49;17.00;99.90
32215;DHT22;18708;53.124;23.190;2023-05-07T12:43:20;16.40;99.90
32215;DHT22;18708;53.124;23.190;2023-05-07T12:45:49;16.20;1.00
32215;DHT22;18708;53.124;23.190;2023-05-07T12:48:15;16.40;99.90
32215;DHT22;18708;53.124;23.190;2023-05-07T12:50:41;15.90;99.90
32215;DHT22;18708;53.124;23.190;2023-05-07T12:53:08;16.10;99.90
32215;DHT22;18708;53.124;23.190;2023-05-07T12:55:42;16.80;1.00
32215;DHT22;18708;53.124;23.190;2023-05-07T12:58:08;16.70;99.90
32215;DHT22;18708;53.124;23.190;2023-05-07T13:00:37;16.50;99.90
32215;DHT22;18708;53.124;23.190;2023-05-07T13:03:04;17.10;99.90
32215;DHT22;18708;53.124;23.190;2023-05-07T13:05:30;17.30;99.90
32215;DHT22;18708;53.124;23.190;2023-05-07T13:07:56;17.10;99.90
32215;DHT22;18708;53.124;23.190;2023-05-07T13:10:26;16.60;99.90
32215;DHT22;18708;53.124;23.190;2023-05-07T13:12:52;16.50;99.90
32215;DHT22;18708;53.124;23.190;2023-05-07T13:15:18;16.70;1.00
32215;DHT22;18708;53.124;23.190;2023-05-07T13:17:44;16.50;99.90
32215;DHT22;18708;53.124;23.190;2023-05-07T13:20:10;16.30;99.90
32215;DHT22;18708;53.124;23.190;2023-05-07T13:22:37;16.10;99.90
32215;DHT22;18708;53.124;23.190;2023-05-07T13:25:03;16.20;99.90
32215;DHT22;18708;53.124;23.190;2023-05-07T13:27:28;16.60;99.90
32215;DHT22;18708;53.124;23.190;2023-05-07T13:29:56;16.50;99.90
32215;DHT22;18708;53.124;23.190;2023-05-07T13:32:22;17.00;1.00
32215;DHT22;18708;53.124;23.190;2023-05-07T13:34:47;17.70;99.90
32215;DHT22;18708;53.124;23.190;2023-05-07T13:37:13;17.30;1.00
32215;DHT22;18708;53.124;23.190;2023-05-07T13:39:39;16.80;1.00
32215;DHT22;18708;53.124;23.190;2023-05-07T13:42:06;16.80;1.00
32215;DHT22;18708;53.124;23.190;2023-05-07T13:44:32;16.90;1.00
32215;DHT22;18708;53.124;23.190;2023-05-07T13:46:58;16.60;1.00
32215;DHT22;18708;53.124;23.190;2023-05-07T13:49:24;16.50;1.00
32215;DHT22;18708;53.124;23.190;2023-05-07T13:51:49;16.10;99.90
32215;DHT22;18708;53.124;23.190;2023-05-07T13:54:15;15.80;99.90
32215;DHT22;18708;53.124;23.190;2023-05-07T13:56:41;15.50;99.90
32215;DHT22;18708;53.124;23.190;2023-05-07T13:59:07;15.70;99.90
32215;DHT22;18708;53.124;23.190;2023-05-07T14:01:33;15.40;99.90
32215;DHT22;18708;53.124;23.190;2023-05-07T14:03:59;15.20;99.90
32215;DHT22;18708;53.124;23.190;2023-05-07T14:06:25;15.30;99.90
32215;DHT22;18708;53.124;23.190;2023-05-07T14:08:51;15.70;1.00
32215;DHT22;18708;53.124;23.190;2023-05-07T14:11:17;16.10;1.00
32215;DHT22;18708;53.124;23.190;2023-05-07T14:13:42;15.90;99.90
32215;DHT22;18708;53.124;23.190;2023-05-07T14:16:08;16.00;99.90
32215;DHT22;18708;53.124;23.190;2023-05-07T14:18:34;15.40;99.90
32215;DHT22;18708;53.124;23.190;2023-05-07T14:21:00;15.10;99.90
32215;DHT22;18708;53.124;23.190;2023-05-07T14:23:26;15.00;99.90
32215;DHT22;18708;53.124;23.190;2023-05-07T14:25:53;15.10;99.90
32215;DHT22;18708;53.124;23.190;2023-05-07T14:28:19;15.20;99.90
32215;DHT22;18708;53.124;23.190;2023-05-07T14:30:45;15.20;99.90
32215;DHT22;18708;53.124;23.190;2023-05-07T14:33:10;15.00;99.90
32215;DHT22;18708;53.124;23.190;2023-05-07T14:35:36;15.10;99.90
32215;DHT22;18708;53.124;23.190;2023-05-07T14:38:02;14.90;99.90
32215;DHT22;18708;53.124;23.190;2023-05-07T14:40:27;15.00;99.90
32215;DHT22;18708;53.124;23.190;2023-05-07T14:42:53;14.90;99.90
32215;DHT22;18708;53.124;23.190;2023-05-07T14:45:20;14.90;99.90
32215;DHT22;18708;53.124;23.190;2023-05-07T14:47:46;14.80;99.90
32215;DHT22;18708;53.124;23.190;2023-05-07T14:50:12;14.70;99.90
32215;DHT22;18708;53.124;23.190;2023-05-07T14:52:37;14.40;1.00
32215;DHT22;18708;53.124;23.190;2023-05-07T14:55:04;14.30;99.90
32215;DHT22;18708;53.124;23.190;2023-05-07T14:57:30;14.30;99.90
32215;DHT22;18708;53.124;23.190;2023-05-07T15:00:00;14.50;99.90
32215;DHT22;18708;53.124;23.190;2023-05-07T15:02:26;14.30;99.90
32215;DHT22;18708;53.124;23.190;2023-05-07T15:04:52;14.20;99.90
32215;DHT22;18708;53.124;23.190;2023-05-07T15:07:18;14.10;99.90
32215;DHT22;18708;53.124;23.190;2023-05-07T15:09:44;14.30;99.90
32215;DHT22;18708;53.124;23.190;2023-05-07T15:12:10;14.50;1.00
32215;DHT22;18708;53.124;23.190;2023-05-07T15:14:37;14.50;99.90
32215;DHT22;18708;53.124;23.190;2023-05-07T15:17:03;14.40;99.90
32215;DHT22;18708;53.124;23.190;2023-05-07T15:19:29;14.10;99.90
32215;DHT22;18708;53.124;23.190;2023-05-07T15:21:59;13.90;99.90
32215;DHT22;18708;53.124;23.190;2023-05-07T15:24:31;13.80;99.90
32215;DHT22;18708;53.124;23.190;2023-05-07T15:26:56;14.00;99.90
32215;DHT22;18708;53.124;23.190;2023-05-07T15:29:23;13.80;99.90
32215;DHT22;18708;53.124;23.190;2023-05-07T15:31:50;13.80;99.90
32215;DHT22;18708;53.124;23.190;2023-05-07T15:34:17;14.10;99.90
32215;DHT22;18708;53.124;23.190;2023-05-07T15:36:42;14.00;99.90
32215;DHT22;18708;53.124;23.190;2023-05-07T15:39:08;14.00;1.00
32215;DHT22;18708;53.124;23.190;2023-05-07T15:41:35;14.10;99.90
32215;DHT22;18708;53.124;23.190;2023-05-07T15:44:02;13.90;99.90
32215;DHT22;18708;53.124;23.190;2023-05-07T15:46:28;14.00;99.90
32215;DHT22;18708;53.124;23.190;2023-05-07T15:48:54;13.80;1.00
32215;DHT22;18708;53.124;23.190;2023-05-07T15:51:21;13.60;99.90
32215;DHT22;18708;53.124;23.190;2023-05-07T15:53:47;13.60;99.90
32215;DHT22;18708;53.124;23.190;2023-05-07T15:56:12;13.70;99.90